Time;durP1;ratioP1;P1;durP2;ratioP2;P2;SDS_P1;SDS_P2;PMS_P1;PMS_P2;Temp;Humidity;BMP_temperature;BMP_pressure;BME280_temperature;BME280_humidity;BME280_pressure;Samples;Min_cycle;Max_cycle;Signal;HPM_P1;HPM_P2
2022/09/23 00:00:15;;;;;;;14.20;9.07;;;11.90;99.90;;;;;;5073111;28;20041;-62
2022/09/23 00:02:41;;;;;;;10.57;8.98;;;11.80;99.90;;;;;;5067939;28;20432;-62
2022/09/23 00:05:09;;;;;;;13.55;9.80;;;11.90;99.90;;;;;;5070117;28;20052;-62
2022/09/23 00:07:34;;;;;;;15.23;10.48;;;11.20;99.90;;;;;;5073214;28;20177;-62
2022/09/23 00:10:00;;;;;;;14.05;10.05;;;11.20;99.90;;;;;;5073880;28;20103;-62
2022/09/23 00:12:26;;;;;;;12.55;9.23;;;11.40;99.90;;;;;;5074168;28;20051;-61
2022/09/23 00:14:51;;;;;;;12.35;9.25;;;11.70;99.90;;;;;;5060488;28;20037;-62
2022/09/23 00:17:17;;;;;;;13.05;9.05;;;11.70;99.90;;;;;;5052953;28;20412;-61
2022/09/23 00:19:42;;;;;;;12.82;8.85;;;11.40;99.90;;;;;;5054220;28;20036;-62
2022/09/23 00:22:08;;;;;;;12.95;8.32;;;11.10;99.90;;;;;;5054299;28;20048;-62
2022/09/23 00:24:34;;;;;;;12.20;9.23;;;11.60;99.90;;;;;;5064689;28;20041;-62
2022/09/23 00:27:00;;;;;;;11.13;8.60;;;11.90;99.90;;;;;;5073682;28;20037;-62
2022/09/23 00:29:26;;;;;;;12.60;9.63;;;11.80;99.90;;;;;;5071985;28;20042;-62
2022/09/23 00:31:52;;;;;;;15.57;9.82;;;11.40;99.90;;;;;;5070428;28;20116;-61
2022/09/23 00:34:17;;;;;;;13.73;8.38;;;11.50;99.90;;;;;;5062279;28;20544;-62
2022/09/23 00:36:43;;;;;;;12.40;9.00;;;12.00;99.90;;;;;;5053927;28;20106;-62
2022/09/23 00:39:08;;;;;;;13.85;8.88;;;11.50;99.90;;;;;;5053894;28;20472;-62
2022/09/23 00:41:35;;;;;;;15.18;8.80;;;11.50;99.90;;;;;;5052584;28;20048;-62
2022/09/23 00:44:22;;;;;;;12.27;8.82;;;11.80;99.90;;;;;;5054445;28;20494;-62
2022/09/23 00:46:47;;;;;;;12.68;9.60;;;11.80;99.90;;;;;;5053753;28;20410;-62
2022/09/23 00:49:28;;;;;;;12.77;9.40;;;11.90;99.90;;;;;;5053704;28;20044;-62
2022/09/23 00:52:01;;;;;;;14.82;9.90;;;12.40;99.90;;;;;;5053634;28;20116;-62
2022/09/23 00:54:30;;;;;;;14.05;9.60;;;11.70;99.90;;;;;;5054633;28;20044;-62
2022/09/23 00:56:58;;;;;;;12.23;9.40;;;11.40;99.90;;;;;;5053466;28;20406;-62
2022/09/23 00:59:25;;;;;;;11.80;9.60;;;11.80;99.90;;;;;;5051513;28;20125;-62
2022/09/23 01:01:53;;;;;;;12.32;9.93;;;11.90;99.90;;;;;;5054563;28;20045;-62
2022/09/23 01:04:22;;;;;;;12.30;9.30;;;11.50;99.90;;;;;;5070533;28;20048;-62
2022/09/23 01:06:48;;;;;;;12.10;9.68;;;11.30;99.90;;;;;;5072163;28;20079;-61
2022/09/23 01:09:14;;;;;;;12.85;9.32;;;11.20;99.90;;;;;;5073213;28;20067;-61
2022/09/23 01:11:51;;;;;;;12.80;9.07;;;11.80;99.90;;;;;;5071211;28;20048;-62
2022/09/23 01:14:58;;;;;;;14.13;9.15;;;11.70;99.90;;;;;;5065655;28;20052;-62
2022/09/23 01:17:28;;;;;;;13.57;9.52;;;11.20;99.90;;;;;;5065348;28;20113;-62
2022/09/23 01:20:36;;;;;;;18.85;10.00;;;11.30;99.90;;;;;;5073128;28;20494;-62
2022/09/23 01:23:22;;;;;;;12.77;9.93;;;11.70;99.90;;;;;;5058613;28;20410;-61
2022/09/23 01:26:26;;;;;;;13.13;9.75;;;11.10;99.90;;;;;;5051976;28;20402;-62
2022/09/23 01:29:16;;;;;;;13.88;9.48;;;11.20;99.90;;;;;;5072749;28;20072;-62
2022/09/23 01:31:47;;;;;;;13.40;10.38;;;11.00;99.90;;;;;;5072734;28;20040;-62
2022/09/23 01:34:32;;;;;;;11.82;9.82;;;11.40;99.90;;;;;;5071201;28;20048;-62
2022/09/23 01:37:16;;;;;;;12.15;10.00;;;11.30;99.90;;;;;;5071587;28;20068;-62
2022/09/23 01:40:24;;;;;;;13.07;10.60;;;11.30;99.90;;;;;;5071350;28;20498;-62
2022/09/23 01:42:59;;;;;;;13.57;9.70;;;10.90;99.90;;;;;;5072804;28;20093;-62
2022/09/23 01:45:36;;;;;;;14.13;9.50;;;10.90;99.90;;;;;;5070628;28;20045;-62
2022/09/23 01:48:12;;;;;;;;;;;10.60;99.90;;;;;;5071725;28;20494;-62
2022/09/23 01:50:57;;;;;;;14.05;11.02;;;10.90;99.90;;;;;;5069517;28;20306;-62
2022/09/23 01:53:31;;;;;;;12.75;10.73;;;10.80;99.90;;;;;;5071134;28;20083;-62
2022/09/23 01:56:03;;;;;;;13.18;11.70;;;10.80;99.90;;;;;;5052842;28;20029;-62
2022/09/23 01:58:45;;;;;;;14.60;11.00;;;10.50;99.90;;;;;;5051411;28;20041;-62
2022/09/23 02:01:17;;;;;;;18.00;11.70;;;10.30;99.90;;;;;;5052118;28;20044;-62
2022/09/23 02:03:50;;;;;;;12.65;11.10;;;10.30;99.90;;;;;;5070044;28;20113;-62
2022/09/23 02:06:23;;;;;;;15.50;12.30;;;10.30;99.90;;;;;;5053191;28;20052;-62
2022/09/23 02:09:05;;;;;;;17.15;12.45;;;10.40;99.90;;;;;;5052282;28;20048;-62
2022/09/23 02:11:35;;;;;;;17.73;12.48;;;10.70;99.90;;;;;;5050880;28;20053;-62
2022/09/23 02:14:48;;;;;;;14.48;12.90;;;10.50;99.90;;;;;;5052200;28;20040;-62
2022/09/23 02:17:18;;;;;;;16.73;11.07;;;10.30;99.90;;;;;;5046875;28;20049;-62
2022/09/23 02:19:47;;;;;;;14.07;11.48;;;10.30;99.90;;;;;;5052083;28;20491;-62
2022/09/23 02:22:39;;;;;;;21.13;12.65;;;10.60;99.90;;;;;;5057827;28;20040;-62
2022/09/23 02:25:07;;;;;;;16.90;11.75;;;10.20;99.90;;;;;;5071768;28;20068;-62
2022/09/23 02:27:46;;;;;;;16.80;13.25;;;10.60;99.90;;;;;;5070989;28;20076;-62
2022/09/23 02:30:14;;;;;;;16.33;12.38;;;10.50;99.90;;;;;;5071663;28;20463;-62
2022/09/23 02:32:55;;;;;;;15.68;12.13;;;10.70;99.90;;;;;;5061771;28;20112;-61
2022/09/23 02:35:42;;;;;;;16.40;12.02;;;10.00;99.90;;;;;;5051826;28;20477;-61
2022/09/23 02:38:30;;;;;;;18.48;12.85;;;10.00;99.90;;;;;;5067317;28;20043;-62
2022/09/23 02:41:25;;;;;;;16.67;12.63;;;10.50;99.90;;;;;;5070113;28;20066;-62
2022/09/23 02:44:05;;;;;;;16.20;12.63;;;10.50;99.90;;;;;;5044746;28;20134;-61
2022/09/23 02:46:31;;;;;;;20.98;13.25;;;10.40;99.90;;;;;;5051577;28;20509;-62
2022/09/23 02:49:09;;;;;;;15.07;12.73;;;10.50;99.90;;;;;;5051704;28;20522;-62
2022/09/23 02:51:37;;;;;;;19.20;14.20;;;10.00;99.90;;;;;;5051922;28;20037;-62
2022/09/23 02:54:06;;;;;;;19.42;12.80;;;9.90;99.90;;;;;;5053142;28;20406;-61
2022/09/23 02:56:32;;;;;;;19.40;13.45;;;9.80;99.90;;;;;;5070737;28;20115;-62
2022/09/23 02:58:58;;;;;;;19.67;13.55;;;10.40;99.90;;;;;;5070188;28;20043;-62
2022/09/23 03:01:31;;;;;;;18.05;14.07;;;9.90;99.90;;;;;;5071261;28;20044;-61
2022/09/23 03:04:11;;;;;;;17.38;14.73;;;9.80;99.90;;;;;;5051659;28;20486;-62
2022/09/23 03:06:58;;;;;;;18.38;15.00;;;10.40;99.90;;;;;;5050196;28;20498;-62
2022/09/23 03:09:35;;;;;;;19.13;14.27;;;9.80;99.90;;;;;;5051454;28;20045;-62
2022/09/23 03:12:20;;;;;;;21.45;15.27;;;10.10;99.90;;;;;;5054975;28;20057;-62
2022/09/23 03:14:47;;;;;;;19.35;14.20;;;9.90;99.90;;;;;;5070794;28;20559;-62
2022/09/23 03:17:42;;;;;;;22.60;14.63;;;10.00;99.90;;;;;;5070278;28;20048;-62
2022/09/23 03:20:21;;;;;;;19.67;15.43;;;10.30;99.90;;;;;;5071211;28;20087;-63
2022/09/23 03:22:53;;;;;;;25.67;15.10;;;10.30;99.90;;;;;;5061037;28;20041;-62
2022/09/23 03:25:23;;;;;;;18.70;13.88;;;10.30;99.90;;;;;;5050853;28;20055;-62
2022/09/23 03:27:49;;;;;;;19.25;15.32;;;9.70;99.90;;;;;;5051269;28;20051;-61
2022/09/23 03:30:15;;;;;;;19.63;14.10;;;9.70;99.90;;;;;;5050890;28;20487;-62
2022/09/23 03:32:44;;;;;;;19.10;13.88;;;9.80;99.90;;;;;;5060347;28;20048;-62
2022/09/23 03:35:12;;;;;;;22.38;15.55;;;10.10;99.90;;;;;;5069936;28;20048;-62
2022/09/23 03:37:44;;;;;;;18.15;14.68;;;10.30;99.90;;;;;;5070456;28;20036;-62
2022/09/23 03:40:27;;;;;;;25.25;14.65;;;10.20;99.90;;;;;;5070793;28;20087;-61
2022/09/23 03:42:55;;;;;;;23.05;15.48;;;9.80;99.90;;;;;;5063072;28;20071;-62
2022/09/23 03:45:25;;;;;;;17.92;14.55;;;10.10;99.90;;;;;;5050487;28;20037;-61
2022/09/23 03:47:50;;;;;;;20.58;15.13;;;9.90;99.90;;;;;;5050923;28;20078;-62
2022/09/23 03:50:16;;;;;;;20.27;14.75;;;10.30;99.90;;;;;;5050766;28;20049;-62
2022/09/23 03:52:43;;;;;;;20.20;14.90;;;10.30;99.90;;;;;;5054012;28;20043;-62
2022/09/23 03:55:10;;;;;;;22.20;15.75;;;9.70;99.90;;;;;;5070771;28;20111;-62
2022/09/23 03:57:36;;;;;;;26.15;16.73;;;9.70;99.90;;;;;;5069165;28;20040;-62
2022/09/23 04:00:04;;;;;;;21.17;14.90;;;10.40;99.90;;;;;;5070736;28;20041;-62
2022/09/23 04:02:30;;;;;;;20.92;14.93;;;10.00;99.90;;;;;;5067018;28;20033;-62
2022/09/23 04:04:56;;;;;;;20.23;15.05;;;10.40;99.90;;;;;;5050648;28;20052;-62
2022/09/23 04:07:22;;;;;;;22.80;15.23;;;10.30;99.90;;;;;;5057703;28;20558;-62
2022/09/23 04:09:47;;;;;;;18.67;13.95;;;9.80;99.90;;;;;;5070486;28;20036;-62
2022/09/23 04:12:15;;;;;;;20.95;15.75;;;10.20;99.90;;;;;;5070448;28;20040;-62
2022/09/23 04:14:40;;;;;;;21.55;15.38;;;9.80;99.90;;;;;;5050731;28;20490;-62
2022/09/23 04:17:06;;;;;;;26.88;15.85;;;10.50;99.90;;;;;;5050496;28;20184;-62
2022/09/23 04:19:32;;;;;;;18.85;14.20;;;10.50;99.90;;;;;;5049233;28;20424;-62
2022/09/23 04:21:58;;;;;;;24.52;14.88;;;10.00;99.90;;;;;;5049262;28;20036;-62
2022/09/23 04:24:23;;;;;;;24.42;15.73;;;10.50;99.90;;;;;;5067016;28;20048;-62
2022/09/23 04:26:51;;;;;;;22.58;15.77;;;10.30;99.90;;;;;;5070236;28;20056;-62
2022/09/23 04:29:17;;;;;;;19.63;14.15;;;9.90;99.90;;;;;;5069152;28;20094;-62
2022/09/23 04:31:42;;;;;;;23.30;15.52;;;10.20;99.90;;;;;;5068410;28;20068;-62
2022/09/23 04:34:08;;;;;;;20.27;14.60;;;10.60;99.90;;;;;;5055648;28;20041;-62
2022/09/23 04:36:34;;;;;;;23.98;14.82;;;10.10;99.90;;;;;;5054013;28;20037;-62
2022/09/23 04:39:00;;;;;;;20.63;15.52;;;10.40;99.90;;;;;;5074198;28;20058;-62
2022/09/23 04:41:25;;;;;;;21.50;15.30;;;10.10;99.90;;;;;;5063997;28;20086;-62
2022/09/23 04:43:51;;;;;;;22.05;15.70;;;10.90;99.90;;;;;;5062659;28;20040;-62
2022/09/23 04:46:17;;;;;;;26.00;16.48;;;11.00;99.90;;;;;;5053632;28;20037;-62
2022/09/23 04:48:43;;;;;;;23.70;15.98;;;11.00;99.90;;;;;;5053868;28;20617;-62
2022/09/23 04:51:14;;;;;;;25.10;15.27;;;10.60;99.90;;;;;;5053508;28;20041;-62
2022/09/23 04:53:42;;;;;;;22.90;15.70;;;10.50;99.90;;;;;;5062700;28;20537;-62
2022/09/23 04:56:17;;;;;;;25.52;17.77;;;11.10;99.90;;;;;;5072438;28;20084;-62
2022/09/23 04:58:44;;;;;;;26.52;17.48;;;10.60;99.90;;;;;;5073379;28;20043;-63
2022/09/23 05:01:25;;;;;;;24.20;16.27;;;10.60;99.90;;;;;;5071569;28;20440;-62
2022/09/23 05:03:53;;;;;;;29.30;17.38;;;10.60;99.90;;;;;;5065156;28;20048;-62
2022/09/23 05:06:19;;;;;;;22.63;17.70;;;11.20;99.90;;;;;;5053611;28;20040;-62
2022/09/23 05:08:48;;;;;;;27.08;17.92;;;11.40;99.90;;;;;;5053563;28;20372;-63
2022/09/23 05:11:14;;;;;;;24.67;17.75;;;11.50;99.90;;;;;;5052976;28;20107;-62
2022/09/23 05:13:39;;;;;;;25.70;16.92;;;10.90;99.90;;;;;;5061592;28;20450;-63
2022/09/23 05:16:07;;;;;;;22.30;14.82;;;11.10;99.90;;;;;;5072554;28;20402;-62
2022/09/23 05:18:34;;;;;;;22.70;15.98;;;10.90;99.90;;;;;;5072073;28;20051;-62
2022/09/23 05:21:00;;;;;;;24.67;16.70;;;11.60;99.90;;;;;;5073237;28;20051;-62
2022/09/23 05:23:26;;;;;;;24.75;15.57;;;11.40;99.90;;;;;;5062139;28;20047;-62
2022/09/23 05:25:57;;;;;;;25.90;18.33;;;11.70;99.90;;;;;;5052997;28;20037;-63
2022/09/23 05:28:25;;;;;;;30.42;18.83;;;11.10;99.90;;;;;;5053065;28;20029;-63
2022/09/23 05:30:50;;;;;;;23.95;16.92;;;11.80;99.90;;;;;;5052925;28;20041;-63
2022/09/23 05:33:16;;;;;;;26.63;17.90;;;11.10;99.90;;;;;;5057945;28;20041;-63
2022/09/23 05:35:48;;;;;;;27.65;18.30;;;11.40;99.90;;;;;;5073114;28;20502;-63
2022/09/23 05:38:15;;;;;;;26.90;17.25;;;11.30;99.90;;;;;;5072743;28;20449;-63
2022/09/23 05:40:41;;;;;;;26.65;18.80;;;11.30;99.90;;;;;;5070991;28;20036;-64
2022/09/23 05:43:07;;;;;;;31.45;20.23;;;11.20;99.90;;;;;;5068014;28;20525;-64
2022/09/23 05:45:32;;;;;;;29.20;19.63;;;11.30;99.90;;;;;;5050836;28;20491;-63
2022/09/23 05:47:58;;;;;;;31.85;19.08;;;12.10;99.90;;;;;;5066965;28;20040;-63
2022/09/23 05:50:23;;;;;;;29.17;20.30;;;11.90;99.90;;;;;;5072692;28;20090;-63
2022/09/23 05:52:49;;;;;;;29.80;20.02;;;11.30;99.90;;;;;;5072285;28;20048;-63
2022/09/23 05:55:14;;;;;;;30.55;19.42;;;11.90;99.90;;;;;;5070358;28;20044;-63
2022/09/23 05:57:40;;;;;;;26.08;18.60;;;11.60;99.90;;;;;;5072217;28;20040;-63
2022/09/23 06:00:06;;;;;;;30.85;19.98;;;12.10;99.90;;;;;;5072249;28;20033;-64
2022/09/23 06:02:32;;;;;;;25.38;18.30;;;12.00;99.90;;;;;;5071119;28;20048;-63
2022/09/23 06:04:57;;;;;;;26.80;18.33;;;11.70;99.90;;;;;;5057504;28;20514;-63
2022/09/23 06:07:23;;;;;;;29.73;19.60;;;11.50;99.90;;;;;;5053538;28;20041;-64
2022/09/23 06:09:49;;;;;;;26.23;17.88;;;11.50;99.90;;;;;;5051818;28;20423;-64
2022/09/23 06:12:15;;;;;;;25.60;17.98;;;11.70;99.90;;;;;;5052228;28;20052;-64
2022/09/23 06:14:40;;;;;;;24.95;18.08;;;12.10;99.90;;;;;;5063893;28;20044;-64
2022/09/23 06:17:06;;;;;;;30.77;18.48;;;12.00;99.90;;;;;;5070278;28;20397;-64
2022/09/23 06:19:32;;;;;;;28.77;17.45;;;12.00;99.90;;;;;;5070668;28;20576;-64
2022/09/23 06:21:57;;;;;;;23.60;16.90;;;12.00;99.90;;;;;;5071331;28;20036;-67
2022/09/23 06:24:23;;;;;;;26.48;18.05;;;12.90;99.90;;;;;;5060764;28;20045;-69
2022/09/23 06:26:48;;;;;;;22.30;17.17;;;12.10;99.90;;;;;;5052483;28;20127;-65
2022/09/23 06:29:14;;;;;;;24.35;17.85;;;12.20;99.90;;;;;;5071785;28;20393;-65
2022/09/23 06:31:40;;;;;;;25.60;17.48;;;12.90;99.90;;;;;;5071190;28;20110;-65
2022/09/23 06:34:09;;;;;;;26.05;18.33;;;12.50;99.90;;;;;;5064171;28;20045;-65
2022/09/23 06:36:34;;;;;;;21.92;16.67;;;12.30;99.90;;;;;;5065388;28;20045;-65
2022/09/23 06:39:01;;;;;;;25.80;17.67;;;12.30;99.90;;;;;;5070810;28;20043;-64
2022/09/23 06:41:26;;;;;;;26.05;17.88;;;12.80;99.90;;;;;;5070159;28;20056;-65
2022/09/23 06:43:52;;;;;;;26.05;16.90;;;13.00;99.90;;;;;;5068184;28;20040;-65
2022/09/23 06:46:18;;;;;;;27.13;17.95;;;12.80;99.90;;;;;;5068427;28;20037;-65
2022/09/23 06:48:44;;;;;;;23.90;17.30;;;12.30;99.90;;;;;;5071795;28;20041;-65
2022/09/23 06:51:17;;;;;;;28.30;19.38;;;13.20;99.90;;;;;;5051987;28;20048;-65
2022/09/23 06:53:47;;;;;;;26.55;17.98;;;13.00;99.90;;;;;;5054912;28;20050;-64
2022/09/23 06:56:13;;;;;;;26.77;17.00;;;13.00;99.90;;;;;;5071351;28;20047;-65
2022/09/23 06:58:39;;;;;;;23.92;17.17;;;13.30;99.90;;;;;;5069319;28;20052;-65
2022/09/23 07:01:10;;;;;;;28.33;18.90;;;12.70;99.90;;;;;;5060683;28;20040;-65
2022/09/23 07:03:37;;;;;;;28.52;17.25;;;13.30;99.90;;;;;;5052479;28;20029;-65
2022/09/23 07:06:04;;;;;;;29.63;18.13;;;13.60;99.90;;;;;;5071487;28;20087;-65
2022/09/23 07:08:32;;;;;;;27.73;17.88;;;13.60;99.90;;;;;;5063128;28;20410;-65
2022/09/23 07:11:00;;;;;;;24.70;17.08;;;13.30;99.90;;;;;;5050734;28;20053;-65
2022/09/23 07:13:26;;;;;;;23.73;16.50;;;13.50;99.90;;;;;;5051445;28;20049;-64
2022/09/23 07:15:57;;;;;;;25.40;17.63;;;14.00;99.90;;;;;;5051848;28;20032;-65
2022/09/23 07:18:24;;;;;;;24.13;16.65;;;13.90;99.90;;;;;;5071410;28;20036;-65
2022/09/23 07:20:51;;;;;;;26.65;18.13;;;13.90;99.90;;;;;;5069898;28;20036;-65
2022/09/23 07:23:16;;;;;;;27.35;16.85;;;13.20;99.90;;;;;;5057551;28;20055;-65
2022/09/23 07:25:43;;;;;;;29.20;17.77;;;13.20;99.90;;;;;;5069210;28;20107;-65
2022/09/23 07:28:09;;;;;;;24.20;16.92;;;14.20;99.90;;;;;;5069651;28;20490;-65
2022/09/23 07:30:39;;;;;;;24.88;17.38;;;14.40;99.90;;;;;;5071025;28;20120;-65
2022/09/23 07:33:05;;;;;;;25.73;17.95;;;14.20;99.90;;;;;;5057368;28;20104;-65
2022/09/23 07:35:32;;;;;;;22.73;16.92;;;14.50;99.90;;;;;;5068631;28;20119;-65
2022/09/23 07:37:58;;;;;;;20.80;15.63;;;15.30;99.90;;;;;;5059305;28;20052;-65
2022/09/23 07:40:24;;;;;;;21.77;16.27;;;14.10;99.90;;;;;;5049483;28;20471;-65
2022/09/23 07:42:49;;;;;;;21.05;15.95;;;14.20;99.90;;;;;;5051162;28;20064;-65
2022/09/23 07:45:15;;;;;;;26.50;15.52;;;14.40;99.90;;;;;;5049111;28;20041;-64
2022/09/23 07:47:40;;;;;;;27.08;16.33;;;14.70;99.90;;;;;;5081165;28;20044;-65
2022/09/23 07:50:09;;;;;;;19.55;14.73;;;14.50;99.90;;;;;;5068542;28;20079;-65
2022/09/23 07:52:36;;;;;;;23.13;16.17;;;15.20;99.90;;;;;;5068794;28;20047;-65
2022/09/23 07:55:05;;;;;;;22.35;15.27;;;15.20;99.90;;;;;;5067820;28;20756;-65
2022/09/23 07:57:31;;;;;;;20.27;15.13;;;14.50;99.90;;;;;;5070690;28;20539;-65
2022/09/23 07:59:59;;;;;;;22.88;15.88;;;15.30;99.90;;;;;;5070464;28;20044;-65
2022/09/23 08:02:24;;;;;;;19.25;15.00;;;15.50;99.90;;;;;;5070283;28;20028;-65
2022/09/23 08:04:50;;;;;;;20.45;15.38;;;15.50;99.90;;;;;;5068973;28;20032;-65
2022/09/23 08:07:15;;;;;;;25.35;14.73;;;15.20;99.90;;;;;;5070487;28;20036;-65
2022/09/23 08:09:42;;;;;;;26.30;14.32;;;14.70;99.90;;;;;;5070706;28;20041;-65
2022/09/23 08:12:09;;;;;;;19.98;13.80;;;15.60;99.90;;;;;;5074434;28;20131;-65
2022/09/23 08:14:35;;;;;;;23.23;14.02;;;14.70;99.90;;;;;;5068011;28;20029;-65
2022/09/23 08:17:01;;;;;;;17.77;13.88;;;15.70;99.90;;;;;;5053335;28;20048;-65
2022/09/23 08:19:26;;;;;;;22.70;15.02;;;15.40;99.90;;;;;;5054335;28;20398;-65
2022/09/23 08:21:53;;;;;;;19.35;14.05;;;15.80;99.90;;;;;;5055492;28;20037;-65
2022/09/23 08:24:20;;;;;;;22.70;15.38;;;15.70;99.90;;;;;;5071066;28;20051;-65
2022/09/23 08:26:46;;;;;;;20.20;14.38;;;16.60;99.90;;;;;;5072889;28;20040;-65
2022/09/23 08:29:14;;;;;;;21.73;13.93;;;15.10;99.90;;;;;;5071569;28;20080;-65
2022/09/23 08:31:39;;;;;;;21.42;15.18;;;15.10;99.90;;;;;;5057258;28;20486;-65
2022/09/23 08:34:06;;;;;;;19.92;14.55;;;15.90;99.90;;;;;;5074186;28;20060;-65
2022/09/23 08:36:32;;;;;;;18.75;13.55;;;16.20;99.90;;;;;;5071355;28;20115;-65
2022/09/23 08:38:57;;;;;;;19.48;14.52;;;16.40;99.90;;;;;;5053406;28;20041;-65
2022/09/23 08:41:46;;;;;;;22.52;13.57;;;15.80;99.90;;;;;;5062438;28;20044;-65
2022/09/23 08:44:27;;;;;;;20.95;14.88;;;16.30;99.90;;;;;;5067695;28;20088;-65
2022/09/23 08:47:04;;;;;;;16.95;12.57;;;15.60;99.90;;;;;;5069906;28;20029;-65
2022/09/23 08:49:35;;;;;;;19.77;14.45;;;15.70;99.90;;;;;;5073658;28;20072;-64
2022/09/23 08:52:10;;;;;;;19.20;13.52;;;16.60;99.90;;;;;;5061335;28;20040;-65
2022/09/23 08:54:36;;;;;;;19.20;13.80;;;15.80;99.90;;;;;;5073462;28;20040;-65
2022/09/23 08:57:03;;;;;;;20.52;14.38;;;15.70;99.90;;;;;;5056325;28;20422;-65
2022/09/23 08:59:42;;;;;;;20.08;13.65;;;16.60;99.90;;;;;;5053324;28;20049;-65
2022/09/23 09:02:19;;;;;;;20.45;14.68;;;16.70;99.90;;;;;;5057114;28;20127;-65
2022/09/23 09:04:56;;;;;;;19.63;14.60;;;16.70;99.90;;;;;;5073727;28;20040;-65
2022/09/23 09:07:28;;;;;;;22.48;15.38;;;16.70;99.90;;;;;;5073286;28;20048;-65
2022/09/23 09:10:21;;;;;;;17.17;12.45;;;15.80;99.90;;;;;;5073110;28;20121;-65
2022/09/23 09:13:15;;;;;;;21.20;14.23;;;16.00;99.90;;;;;;5063036;28;20052;-65
2022/09/23 09:15:55;;;;;;;20.33;14.73;;;16.00;99.90;;;;;;5054370;28;20047;-65
2022/09/23 09:18:20;;;;;;;26.42;14.65;;;15.90;99.90;;;;;;5053254;28;20033;-65
2022/09/23 09:20:59;;;;;;;20.33;15.85;;;16.80;99.90;;;;;;5052720;28;20128;-65
2022/09/23 09:23:42;;;;;;;17.23;13.00;;;15.90;99.90;;;;;;5069177;28;20045;-65
2022/09/23 09:26:18;;;;;;;21.75;14.70;;;16.30;99.90;;;;;;5063801;28;20076;-65
2022/09/23 09:29:12;;;;;;;21.17;15.15;;;16.00;99.90;;;;;;5072893;28;20108;-66
2022/09/23 09:31:41;;;;;;;23.17;15.38;;;16.10;99.90;;;;;;5072714;28;20123;-65
2022/09/23 09:34:29;;;;;;;21.80;14.85;;;16.80;99.90;;;;;;5068543;28;20083;-65
2022/09/23 09:37:18;;;;;;;20.58;14.75;;;16.70;99.90;;;;;;5055182;28;20174;-65
2022/09/23 09:39:43;;;;;;;23.05;15.20;;;17.10;99.90;;;;;;5066836;28;20123;-65
2022/09/23 09:42:17;;;;;;;24.02;14.32;;;16.90;99.90;;;;;;5072500;28;20121;-65
2022/09/23 09:44:47;;;;;;;20.55;16.05;;;17.10;99.90;;;;;;5063449;28;20051;-65
2022/09/23 09:47:31;;;;;;;19.08;15.70;;;16.80;99.90;;;;;;5052762;28;20041;-66
2022/09/23 09:50:06;;;;;;;23.02;14.20;;;16.70;99.90;;;;;;5052659;28;20045;-65
2022/09/23 09:52:32;;;;;;;20.90;14.60;;;17.20;99.90;;;;;;5052822;28;20044;-65
2022/09/23 09:55:27;;;;;;;20.88;15.73;;;16.70;99.90;;;;;;5060953;28;20041;-65
2022/09/23 09:58:04;;;;;;;22.25;15.00;;;17.30;99.90;;;;;;5045044;28;20148;-65
2022/09/23 10:00:30;;;;;;;22.23;14.68;;;16.50;99.90;;;;;;5052164;28;20495;-65
2022/09/23 10:03:33;;;;;;;23.02;14.45;;;17.20;99.90;;;;;;5063110;28;20101;-65
2022/09/23 10:05:59;;;;;;;20.80;15.80;;;17.20;99.90;;;;;;5053326;28;20029;-65
2022/09/23 10:08:48;;;;;;;24.35;16.02;;;16.40;99.90;;;;;;5052366;28;20504;-66
2022/09/23 10:11:18;;;;;;;25.00;15.88;;;16.60;99.90;;;;;;5051770;28;20179;-65
2022/09/23 10:14:04;;;;;;;32.20;16.63;;;17.30;99.90;;;;;;5064216;28;20453;-65
2022/09/23 10:16:31;;;;;;;22.83;15.68;;;16.50;99.90;;;;;;5053696;28;20041;-65
2022/09/23 10:18:59;;;;;;;20.17;14.82;;;17.30;99.90;;;;;;5052167;28;20045;-65
2022/09/23 10:21:35;;;;;;;23.73;16.50;;;17.40;99.90;;;;;;5058740;28;20513;-65
2022/09/23 10:24:04;;;;;;;24.75;16.35;;;17.30;99.90;;;;;;5070120;28;20068;-65
2022/09/23 10:26:36;;;;;;;25.90;16.58;;;17.30;99.90;;;;;;5071740;28;20048;-65
2022/09/23 10:29:22;;;;;;;25.90;17.08;;;17.10;99.90;;;;;;5050924;28;20047;-65
2022/09/23 10:31:47;;;;;;;27.52;17.67;;;17.50;99.90;;;;;;5051435;28;20514;-65
2022/09/23 10:34:25;;;;;;;20.52;14.57;;;16.60;99.90;;;;;;5058134;28;20044;-65
2022/09/23 10:37:00;;;;;;;23.98;17.58;;;17.20;99.90;;;;;;5071960;28;20082;-65
2022/09/23 10:48:52;;;;;;;25.83;18.55;;;17.10;99.90;;;;;;5064175;28;20521;-65
2022/09/23 10:51:33;;;;;;;27.85;17.88;;;17.70;99.90;;;;;;5049992;28;20617;-65
2022/09/23 10:54:13;;;;;;;26.38;18.13;;;17.90;99.90;;;;;;5071659;28;20048;-65
2022/09/23 10:56:57;;;;;;;28.60;20.02;;;17.70;99.90;;;;;;5069952;28;20040;-65
2022/09/23 10:59:46;;;;;;;31.73;20.58;;;17.10;99.90;;;;;;5070194;28;20036;-65
2022/09/23 11:02:27;;;;;;;24.67;18.80;;;17.20;99.90;;;;;;5071367;28;20044;-66
2022/09/23 11:05:05;;;;;;;28.65;22.38;;;18.00;99.90;;;;;;5071537;28;20554;-66
2022/09/23 11:07:38;;;;;;;33.95;22.13;;;17.30;99.90;;;;;;5070531;28;20039;-65
2022/09/23 11:10:16;;;;;;;33.28;19.85;;;17.00;99.90;;;;;;5071036;28;20468;-65
2022/09/23 11:12:54;;;;;;;26.98;20.05;;;18.10;99.90;;;;;;5071425;28;20044;-65
2022/09/23 11:15:32;;;;;;;27.77;20.15;;;16.90;99.90;;;;;;5069999;28;20147;-66
2022/09/23 11:18:06;;;;;;;27.77;21.10;;;17.50;99.90;;;;;;5070846;28;20063;-65
2022/09/23 11:20:56;;;;;;;27.45;20.40;;;17.10;99.90;;;;;;5071382;28;20037;-65
2022/09/23 11:23:39;;;;;;;28.73;19.45;;;17.00;99.90;;;;;;5071265;28;20040;-65
2022/09/23 11:26:47;;;;;;;37.75;21.98;;;17.30;99.90;;;;;;5070974;28;20044;-66
2022/09/23 11:29:24;;;;;;;;;;;17.00;99.90;;;;;;5021112;28;20156;-66
2022/09/23 11:31:54;;;;;;;32.40;21.85;;;16.90;99.90;;;;;;5048428;28;19939;-65
2022/09/23 11:34:33;;;;;;;30.20;22.58;;;17.00;99.90;;;;;;5051025;28;20072;-66
2022/09/23 11:37:06;;;;;;;29.85;22.20;;;16.90;99.90;;;;;;5049990;28;20037;-65
2022/09/23 11:39:56;;;;;;;32.55;23.10;;;17.60;99.90;;;;;;5050988;28;20036;-65
2022/09/23 11:42:28;;;;;;;37.60;22.30;;;17.00;99.90;;;;;;5050389;28;20045;-65
2022/09/23 11:44:58;;;;;;;31.52;21.50;;;17.00;99.90;;;;;;5053157;28;20072;-65
2022/09/23 11:47:42;;;;;;;28.45;19.85;;;17.90;99.90;;;;;;5054485;28;20037;-66
2022/09/23 11:50:28;;;;;;;32.92;22.63;;;17.60;99.90;;;;;;5055085;28;20040;-65
2022/09/23 11:53:03;;;;;;;28.05;24.00;;;16.80;99.90;;;;;;5053215;28;20122;-66
2022/09/23 11:55:43;;;;;;;31.27;24.58;;;17.40;99.90;;;;;;5049591;28;20051;-66
2022/09/23 11:58:13;;;;;;;35.55;24.88;;;16.90;99.90;;;;;;5075160;28;20485;-66
2022/09/23 12:00:48;;;;;;;32.25;23.95;;;16.90;99.90;;;;;;5074592;28;20043;-65
2022/09/23 12:03:35;;;;;;;32.33;24.10;;;18.10;99.90;;;;;;5074843;28;20083;-66
2022/09/23 12:06:08;;;;;;;29.88;23.45;;;18.00;99.90;;;;;;5074630;28;20040;-66
2022/09/23 12:08:38;;;;;;;35.15;24.25;;;17.80;99.90;;;;;;5074861;28;20040;-65
2022/09/23 12:11:34;;;;;;;33.15;24.25;;;17.80;99.90;;;;;;5074187;28;20087;-65
2022/09/23 12:14:16;;;;;;;31.67;24.33;;;17.20;99.90;;;;;;5074862;28;20497;-65
2022/09/23 12:17:13;;;;;;;33.78;25.92;;;18.10;99.90;;;;;;5073059;28;20482;-66
2022/09/23 12:19:56;;;;;;;;;;;17.60;99.90;;;;;;5074081;28;20040;-66
2022/09/23 12:22:28;;;;;;;32.47;23.80;;;17.40;99.90;;;;;;5072843;28;19965;-66
2022/09/23 12:25:09;;;;;;;38.33;23.63;;;17.40;99.90;;;;;;5073808;28;20048;-65
2022/09/23 12:27:44;;;;;;;30.83;23.25;;;16.90;99.90;;;;;;5074185;28;20112;-66
2022/09/23 12:30:19;;;;;;;36.15;24.90;;;18.00;99.90;;;;;;5074123;28;20036;-65
2022/09/23 12:32:45;;;;;;;30.98;24.00;;;16.80;99.90;;;;;;5074009;28;20032;-66
2022/09/23 12:35:30;;;;;;;32.28;25.63;;;16.70;99.90;;;;;;5074027;28;20110;-66
2022/09/23 12:37:59;;;;;;;32.33;23.85;;;17.90;99.90;;;;;;5073064;28;20056;-66
2022/09/23 12:40:33;;;;;;;36.63;24.73;;;17.00;99.90;;;;;;5073850;28;20094;-66
2022/09/23 12:43:00;;;;;;;36.10;27.70;;;17.00;99.90;;;;;;5073960;28;20482;-66
2022/09/23 12:45:30;;;;;;;37.40;25.27;;;17.80;99.90;;;;;;5069724;28;20514;-66
2022/09/23 12:47:57;;;;;;;28.67;21.52;;;18.00;99.90;;;;;;5062965;28;20094;-66
2022/09/23 12:50:47;;;;;;;28.33;22.50;;;17.50;99.90;;;;;;5053720;28;20048;-67
2022/09/23 12:53:31;;;;;;;28.50;21.77;;;18.10;99.90;;;;;;5060222;28;20044;-67
2022/09/23 12:55:58;;;;;;;33.47;22.10;;;18.10;99.90;;;;;;5072640;28;20113;-67
2022/09/23 12:58:38;;;;;;;25.48;20.15;;;17.90;99.90;;;;;;5073545;28;20150;-67
2022/09/23 13:01:24;;;;;;;23.50;17.98;;;17.60;99.90;;;;;;5073418;28;20115;-67
2022/09/23 13:06:42;;;;;;;21.90;19.10;;;18.40;99.90;;;;;;5073677;28;20094;-67
2022/09/23 13:09:17;;;;;;;30.95;20.67;;;18.30;99.90;;;;;;5073478;28;20294;-67